createdAt,value
2019-05-21T00:01:26.979Z,100526.04
2019-05-21T00:04:27.134Z,100524.92
2019-05-21T00:06:57.867Z,100521.78
2019-05-21T00:09:41.610Z,100528.81
2019-05-21T00:12:25.514Z,100530.00
2019-05-21T00:15:10.239Z,100523.38
2019-05-21T00:17:55.766Z,100550.23
2019-05-21T00:20:39.642Z,100551.77
2019-05-21T00:23:24.014Z,100523.43
2019-05-21T00:26:07.761Z,100524.92
2019-05-21T00:29:13.547Z,100548.58
2019-05-21T00:32:20.587Z,100520.32
2019-05-21T00:35:27.290Z,100521.20
2019-05-21T00:38:32.891Z,100543.48
2019-05-21T00:41:41.350Z,100544.41
2019-05-21T00:44:26.883Z,100539.68
2019-05-21T00:47:11.560Z,100522.24
2019-05-21T00:49:55.757Z,100542.47
2019-05-21T00:52:38.965Z,100536.86
2019-05-21T00:55:22.441Z,100517.77
2019-05-21T00:58:06.900Z,100540.59
2019-05-21T01:00:51.355Z,100517.86
2019-05-21T01:06:38.126Z,100549.49
2019-05-21T01:09:22.936Z,100530.16
2019-05-21T01:12:07.413Z,100553.67
2019-05-21T01:14:51.478Z,100537.56
2019-05-21T01:17:35.229Z,100535.17
2019-05-21T01:20:21.263Z,100543.22
2019-05-21T01:23:05.304Z,100539.16
2019-05-21T01:25:48.920Z,100540.08
2019-05-21T01:28:33.607Z,100558.92
2019-05-21T01:31:17.962Z,100561.63
2019-05-21T01:34:02.298Z,100542.39
2019-05-21T01:36:46.878Z,100567.67
2019-05-21T01:39:31.001Z,100570.73
2019-05-21T01:42:14.471Z,100548.47
2019-05-21T01:44:58.151Z,100545.44
2019-05-21T01:47:42.402Z,100544.97
2019-05-21T01:50:15.526Z,100565.20
2019-05-21T01:52:59.233Z,100569.10
2019-05-21T01:55:43.426Z,100540.06
2019-05-21T01:58:26.936Z,100557.10
2019-05-21T02:01:11.630Z,100567.52
2019-05-21T02:03:55.489Z,100569.98
2019-05-21T02:06:39.338Z,100551.16
2019-05-21T02:09:23.315Z,100555.78
2019-05-21T02:12:10.585Z,100560.20
2019-05-21T02:14:53.484Z,100560.11
2019-05-21T02:17:37.383Z,100567.23
2019-05-21T02:20:21.696Z,100549.58
2019-05-21T02:23:06.901Z,100561.91
2019-05-21T02:25:52.292Z,100559.17
2019-05-21T02:28:37.625Z,100576.64
2019-05-21T02:31:21.579Z,100551.59
2019-05-21T02:34:05.704Z,100543.78
2019-05-21T02:36:51.454Z,100539.48
2019-05-21T02:39:35.597Z,100536.95
2019-05-21T02:42:19.445Z,100543.02
2019-05-21T02:45:03.502Z,100565.54
2019-05-21T02:47:47.731Z,100566.83
2019-05-21T02:50:31.429Z,100540.97
2019-05-21T02:53:15.601Z,100571.63
2019-05-21T02:56:00.951Z,100547.67
2019-05-21T02:58:45.163Z,100550.81
2019-05-21T03:04:32.566Z,100543.33
2019-05-21T03:07:20.206Z,100549.36
2019-05-21T03:09:52.887Z,100574.31
2019-05-21T03:12:36.618Z,100563.59
2019-05-21T03:15:21.171Z,100554.59
2019-05-21T03:18:04.877Z,100560.36
2019-05-21T03:20:48.957Z,100558.29
2019-05-21T03:23:32.887Z,100560.23
2019-05-21T03:26:16.908Z,100583.84
2019-05-21T03:29:01.085Z,100579.97
2019-05-21T03:31:45.843Z,100568.63
2019-05-21T03:34:29.847Z,100577.23
2019-05-21T03:37:02.159Z,100594.84
2019-05-21T03:39:46.125Z,100591.25
2019-05-21T03:42:31.460Z,100570.59
2019-05-21T03:48:01.033Z,100590.10
2019-05-21T03:50:47.337Z,100566.83
2019-05-21T03:53:31.004Z,100573.04
2019-05-21T03:56:16.615Z,100598.30
2019-05-21T03:59:00.496Z,100600.47
2019-05-21T04:01:44.454Z,100575.56
2019-05-21T04:04:29.855Z,100601.17
2019-05-21T04:07:13.618Z,100597.69
2019-05-21T04:09:59.205Z,100597.95
2019-05-21T04:12:45.094Z,100575.39
2019-05-21T04:15:30.596Z,100580.97
2019-05-21T04:18:19.272Z,100586.85
2019-05-21T04:21:03.153Z,100585.03
2019-05-21T04:23:46.979Z,100581.03
2019-05-21T04:26:31.515Z,100596.06
2019-05-21T04:29:15.310Z,100611.05
2019-05-21T04:31:59.830Z,100612.52
2019-05-21T04:34:43.771Z,100594.39
2019-05-21T04:37:35.874Z,100614.62
2019-05-21T04:40:19.582Z,100598.56
2019-05-21T04:43:03.575Z,100598.59
2019-05-21T04:45:47.630Z,100590.48
2019-05-21T04:48:31.963Z,100594.48
2019-05-21T04:51:05.171Z,100617.00
2019-05-21T04:53:48.751Z,100600.45
2019-05-21T04:56:32.392Z,100614.94
2019-05-21T04:59:16.119Z,100625.06
2019-05-21T05:02:00.267Z,100601.03
2019-05-21T05:04:43.849Z,100623.56
2019-05-21T05:07:29.616Z,100620.25
2019-05-21T05:10:13.489Z,100602.16
2019-05-21T05:15:42.564Z,100610.56
2019-05-21T05:18:26.508Z,100621.69
2019-05-21T05:21:10.463Z,100603.14
2019-05-21T05:23:54.549Z,100619.26
2019-05-21T05:26:38.395Z,100593.89
2019-05-21T05:29:22.691Z,100601.56
2019-05-21T05:32:06.808Z,100616.84
2019-05-21T05:34:50.786Z,100614.30
2019-05-21T05:37:43.536Z,100608.42
2019-05-21T05:40:21.279Z,100581.78
2019-05-21T05:43:05.277Z,100590.23
2019-05-21T05:45:49.320Z,100589.94
2019-05-21T05:48:35.427Z,100611.54
2019-05-21T05:51:19.581Z,100620.31
2019-05-21T05:54:03.390Z,100606.52
2019-05-21T05:56:47.224Z,100633.37
2019-05-21T05:59:31.386Z,100631.19
2019-05-21T06:02:15.381Z,100607.11
2019-05-21T06:04:59.784Z,100635.31
2019-05-21T06:07:57.260Z,100631.67
2019-05-21T06:10:29.818Z,100632.20
2019-05-21T06:13:02.436Z,100636.73
2019-05-21T06:15:46.566Z,100633.39
2019-05-21T06:18:30.580Z,100633.78
2019-05-21T06:21:14.379Z,100607.77
2019-05-21T06:23:58.637Z,100628.81
2019-05-21T06:26:42.816Z,100611.62
2019-05-21T06:29:26.963Z,100606.39
2019-05-21T06:32:10.600Z,100616.41
2019-05-21T06:37:56.890Z,100613.64
2019-05-21T06:40:40.997Z,100635.43
2019-05-21T06:43:24.985Z,100622.12
2019-05-21T06:46:08.956Z,100616.61
2019-05-21T06:48:53.004Z,100622.45
2019-05-21T06:51:37.280Z,100627.89
2019-05-21T06:54:21.146Z,100651.64
2019-05-21T06:57:05.385Z,100654.75
2019-05-21T06:59:49.821Z,100635.01
2019-05-21T07:02:34.820Z,100639.64
2019-05-21T07:05:18.670Z,100657.64
2019-05-21T07:08:03.323Z,100641.77
2019-05-21T07:10:49.387Z,100663.57
2019-05-21T07:13:33.116Z,100654.81
2019-05-21T07:16:16.909Z,100647.98
2019-05-21T07:19:00.537Z,100643.53
2019-05-21T07:21:44.342Z,100675.13
2019-05-21T07:24:29.007Z,100658.24
2019-05-21T07:27:13.368Z,100658.23
2019-05-21T07:29:57.431Z,100653.52
2019-05-21T07:32:41.821Z,100655.75
2019-05-21T07:35:25.735Z,100679.47
2019-05-21T07:38:10.232Z,100685.90
2019-05-21T07:40:54.439Z,100694.55
2019-05-21T07:43:38.418Z,100679.49
2019-05-21T07:46:22.796Z,100687.94
2019-05-21T07:49:07.812Z,100686.76
2019-05-21T07:51:51.966Z,100710.63
2019-05-21T07:54:36.109Z,100704.62
2019-05-21T07:57:24.857Z,100708.44
2019-05-21T08:00:10.855Z,100704.81
2019-05-21T08:02:55.428Z,100703.41
2019-05-21T08:05:39.795Z,100693.63
2019-05-21T08:08:23.895Z,100722.23
2019-05-21T08:11:07.999Z,100702.84
2019-05-21T08:13:54.509Z,100697.18
2019-05-21T08:16:38.708Z,100704.72
2019-05-21T08:19:22.940Z,100706.64
2019-05-21T08:22:07.233Z,100703.27
2019-05-21T08:24:39.561Z,100724.54
2019-05-21T08:27:24.144Z,100708.28
2019-05-21T08:30:08.164Z,100709.22
2019-05-21T08:32:52.346Z,100704.87
2019-05-21T08:35:36.615Z,100736.77
2019-05-21T08:38:20.465Z,100742.95
2019-05-21T08:41:05.162Z,100725.69
2019-05-21T08:43:49.760Z,100729.83
2019-05-21T08:46:34.084Z,100751.36
2019-05-21T08:49:18.592Z,100726.38
2019-05-21T08:52:03.089Z,100727.58
2019-05-21T08:54:56.048Z,100723.27
2019-05-21T08:58:06.307Z,100722.22
2019-05-21T09:00:40.488Z,100748.72
2019-05-21T09:03:25.294Z,100717.14
2019-05-21T09:06:09.819Z,100723.72
2019-05-21T09:08:53.907Z,100743.38
2019-05-21T09:11:37.955Z,100750.23
2019-05-21T09:14:22.551Z,100759.50
2019-05-21T09:17:08.216Z,100762.27
2019-05-21T09:19:52.191Z,100734.49
2019-05-21T09:22:37.034Z,100739.45
2019-05-21T09:25:21.029Z,100745.79
2019-05-21T09:28:05.227Z,100747.52
2019-05-21T09:30:51.070Z,100769.28
2019-05-21T09:33:34.913Z,100756.02
2019-05-21T09:36:20.594Z,100775.34
2019-05-21T09:39:05.327Z,100756.53
2019-05-21T09:44:55.309Z,100783.80
2019-05-21T09:47:38.998Z,100765.20
2019-05-21T09:50:26.157Z,100760.08
2019-05-21T09:53:09.750Z,100760.77
2019-05-21T09:55:53.764Z,100766.98
2019-05-21T10:05:02.828Z,100759.17
2019-05-21T10:07:46.679Z,100782.69
2019-05-21T10:10:30.319Z,100767.04
2019-05-21T10:13:14.410Z,100759.34
2019-05-21T10:16:01.493Z,100778.12
2019-05-21T10:18:44.803Z,100761.48
2019-05-21T10:21:29.338Z,100760.47
2019-05-21T10:24:13.640Z,100764.75
2019-05-21T10:26:58.229Z,100786.34
2019-05-21T10:29:42.423Z,100793.22
2019-05-21T10:32:26.619Z,100775.95
2019-05-21T10:35:10.867Z,100767.48
2019-05-21T10:37:55.557Z,100764.28
2019-05-21T10:40:39.224Z,100766.77
2019-05-21T10:43:23.277Z,100797.03
2019-05-21T10:46:07.848Z,100778.19
2019-05-21T10:48:51.631Z,100780.52
2019-05-21T10:51:36.569Z,100780.42
2019-05-21T10:54:21.025Z,100786.22
2019-05-21T10:57:04.826Z,100787.84
2019-05-21T10:59:48.378Z,100789.60
2019-05-21T11:02:40.416Z,100811.36
2019-05-21T11:05:33.969Z,100789.31
2019-05-21T11:08:23.960Z,100823.64
2019-05-21T11:11:03.502Z,100807.13
2019-05-21T11:13:47.155Z,100804.30
2019-05-21T11:16:31.111Z,100828.67
2019-05-21T11:19:15.190Z,100833.47
2019-05-21T11:21:59.865Z,100813.66
2019-05-21T11:24:45.241Z,100831.69
2019-05-21T11:27:29.706Z,100812.94
2019-05-21T11:32:59.559Z,100835.22
2019-05-21T11:35:43.911Z,100816.95
2019-05-21T11:38:39.674Z,100818.33
2019-05-21T11:41:14.309Z,100839.30
2019-05-21T11:43:58.587Z,100835.02
2019-05-21T11:46:42.965Z,100839.33
2019-05-21T11:49:27.158Z,100841.14
2019-05-21T11:52:11.493Z,100819.30
2019-05-21T11:54:56.027Z,100845.91
2019-05-21T11:57:39.895Z,100829.14
2019-05-21T12:00:25.015Z,100852.36
2019-05-21T12:03:08.998Z,100828.30
2019-05-21T12:05:53.360Z,100854.67
2019-05-21T12:08:37.512Z,100845.27
2019-05-21T12:11:23.194Z,100856.05
2019-05-21T12:14:07.128Z,100859.86
2019-05-21T12:16:51.656Z,100834.34
2019-05-21T12:19:35.877Z,100836.48
2019-05-21T12:22:19.791Z,100831.80
2019-05-21T12:25:03.555Z,100849.45
2019-05-21T12:27:47.336Z,100833.01
2019-05-21T12:30:31.501Z,100848.53
2019-05-21T12:33:15.749Z,100841.23
2019-05-21T12:36:00.281Z,100840.69
2019-05-21T12:38:44.577Z,100870.20
2019-05-21T12:41:29.150Z,100851.98
2019-05-21T12:44:12.682Z,100856.53
2019-05-21T12:46:57.180Z,100881.50
2019-05-21T12:49:47.195Z,100855.38
2019-05-21T12:52:43.398Z,100875.43
2019-05-21T12:55:27.943Z,100854.28
2019-05-21T12:58:12.361Z,100854.05
2019-05-21T13:00:56.687Z,100860.87
2019-05-21T13:03:40.568Z,100874.19
2019-05-21T13:06:25.998Z,100857.42
2019-05-21T13:09:09.705Z,100882.03
2019-05-21T13:11:53.994Z,100889.25
2019-05-21T13:14:38.781Z,100857.33
2019-05-21T13:17:23.214Z,100884.34
2019-05-21T13:20:08.497Z,100887.66
2019-05-21T13:22:52.895Z,100892.22
2019-05-21T13:25:37.477Z,100868.94
2019-05-21T13:28:22.526Z,100864.56
2019-05-21T13:31:06.886Z,100871.64
2019-05-21T13:33:50.584Z,100900.87
2019-05-21T13:36:35.021Z,100896.14
2019-05-21T13:39:19.412Z,100901.05
2019-05-21T13:42:04.718Z,100880.22
2019-05-21T13:44:49.620Z,100875.23
2019-05-21T13:47:33.947Z,100874.80
2019-05-21T13:50:17.920Z,100899.94
2019-05-21T13:53:02.396Z,100896.80
2019-05-21T13:55:46.925Z,100884.48
2019-05-21T13:58:32.490Z,100881.00
2019-05-21T14:01:16.369Z,100908.43
2019-05-21T14:04:00.626Z,100881.50
2019-05-21T14:06:45.356Z,100882.49
2019-05-21T14:09:29.228Z,100889.86
2019-05-21T14:12:13.150Z,100892.45
2019-05-21T14:14:57.227Z,100898.30
2019-05-21T14:17:40.968Z,100900.00
2019-05-21T14:20:25.138Z,100899.50
2019-05-21T14:23:09.167Z,100925.68
2019-05-21T14:25:53.537Z,100903.89
2019-05-21T14:28:37.296Z,100902.64
2019-05-21T14:31:21.400Z,100905.71
2019-05-21T14:34:05.386Z,100934.05
2019-05-21T14:36:49.486Z,100930.08
2019-05-21T14:39:33.090Z,100929.99
2019-05-21T14:42:17.828Z,100905.80
2019-05-21T14:45:01.845Z,100905.15
2019-05-21T14:47:47.428Z,100901.98
2019-05-21T14:50:31.996Z,100901.81
2019-05-21T14:53:16.659Z,100926.45
2019-05-21T14:56:05.111Z,100905.25
2019-05-21T14:58:49.752Z,100904.64
2019-05-21T15:01:34.161Z,100901.20
2019-05-21T15:04:18.877Z,100896.04
2019-05-21T15:07:03.192Z,100893.12
2019-05-21T15:09:47.814Z,100895.53
2019-05-21T15:12:31.686Z,100921.52
2019-05-21T15:15:15.899Z,100898.14
2019-05-21T15:18:00.106Z,100899.85
2019-05-21T15:23:50.535Z,100908.62
2019-05-21T15:26:34.400Z,100911.88
2019-05-21T15:29:19.066Z,100929.66
2019-05-21T15:32:04.446Z,100940.34
2019-05-21T15:34:48.880Z,100929.84
2019-05-21T15:37:32.674Z,100951.28
2019-05-21T15:40:17.162Z,100953.30
2019-05-21T15:43:01.393Z,100930.20
2019-05-21T15:45:45.687Z,100934.59
2019-05-21T15:48:29.846Z,100928.20
2019-05-21T15:51:14.448Z,100954.69
2019-05-21T15:53:58.252Z,100931.13
2019-05-21T15:56:30.614Z,100957.12
2019-05-21T15:59:14.581Z,100961.23
2019-05-21T16:02:00.511Z,100945.46
2019-05-21T16:04:44.477Z,100950.45
2019-05-21T16:07:30.754Z,100983.25
2019-05-21T16:10:14.620Z,100978.44
2019-05-21T16:16:07.065Z,100961.95
2019-05-21T16:18:53.748Z,100958.92
2019-05-21T16:21:40.251Z,100988.34
2019-05-21T16:24:25.573Z,100970.92
2019-05-21T16:27:10.350Z,100993.89
2019-05-21T16:29:45.714Z,100994.47
2019-05-21T16:32:31.670Z,100971.50
2019-05-21T16:35:17.860Z,100981.73
2019-05-21T16:38:03.320Z,100998.37
2019-05-21T16:40:47.276Z,100974.82
2019-05-21T16:43:30.922Z,100974.05
2019-05-21T16:46:15.000Z,101001.42
2019-05-21T16:48:59.601Z,100983.36
2019-05-21T16:51:44.604Z,100982.81
2019-05-21T16:54:28.808Z,100989.02
2019-05-21T16:57:14.435Z,101010.47
2019-05-21T16:59:58.648Z,100986.55
2019-05-21T17:02:43.495Z,101011.19
2019-05-21T17:05:16.132Z,101016.95
2019-05-21T17:08:09.454Z,101001.74
2019-05-21T17:10:53.491Z,101013.53
2019-05-21T17:13:37.320Z,101014.02
2019-05-21T17:16:21.908Z,100997.62
2019-05-21T17:19:06.155Z,101000.89
2019-05-21T17:25:01.189Z,101031.53
2019-05-21T17:27:45.997Z,101011.09
2019-05-21T17:30:32.264Z,101012.22
2019-05-21T17:33:16.688Z,101040.00
2019-05-21T17:36:01.166Z,101018.59
2019-05-21T17:38:45.916Z,101043.20
2019-05-21T17:41:30.568Z,101050.08
2019-05-21T17:44:14.906Z,101047.77
2019-05-21T17:46:59.222Z,101050.73
2019-05-21T17:49:43.774Z,101049.00
2019-05-21T17:52:29.279Z,101022.43
2019-05-21T17:55:13.263Z,101047.47
2019-05-21T17:57:57.788Z,101043.59
2019-05-21T18:03:45.438Z,101022.63
2019-05-21T18:06:29.218Z,101011.64
2019-05-21T18:09:15.750Z,101022.58
2019-05-21T18:12:01.050Z,101050.29
2019-05-21T18:14:45.567Z,101035.88
2019-05-21T18:17:31.265Z,101052.71
2019-05-21T18:20:17.709Z,101036.06
2019-05-21T18:23:01.637Z,101044.39
2019-05-21T18:25:47.251Z,101072.44
2019-05-21T18:28:30.944Z,101052.88
2019-05-21T18:31:14.576Z,101053.17
2019-05-21T18:36:44.987Z,101080.61
2019-05-21T18:39:29.778Z,101066.48
2019-05-21T18:42:21.619Z,101072.88
2019-05-21T18:44:48.699Z,101101.91
2019-05-21T18:47:45.306Z,101112.33
2019-05-21T18:50:36.704Z,101099.91
2019-05-21T18:53:32.056Z,101127.24
2019-05-21T18:56:16.003Z,101106.17
2019-05-21T18:59:00.276Z,101136.23
2019-05-21T19:01:44.513Z,101109.53
2019-05-21T19:04:28.412Z,101115.13
2019-05-21T19:07:13.909Z,101113.39
2019-05-21T19:10:00.896Z,101148.57
2019-05-21T19:12:45.245Z,101127.36
2019-05-21T19:15:30.695Z,101135.49
2019-05-21T19:18:15.109Z,101137.80
2019-05-21T19:21:00.579Z,101136.75
2019-05-21T19:23:33.158Z,101158.80
2019-05-21T19:26:17.306Z,101142.13
2019-05-21T19:29:01.829Z,101152.75
2019-05-21T19:31:49.182Z,101148.63
2019-05-21T19:34:31.625Z,101174.97
2019-05-21T19:37:03.973Z,101179.03
2019-05-21T19:39:49.110Z,101177.27
2019-05-21T19:42:32.769Z,101178.42
2019-05-21T19:45:06.167Z,101179.98
2019-05-21T19:48:02.999Z,101151.78
2019-05-21T19:50:48.612Z,101179.72
2019-05-21T19:53:34.406Z,101153.09
2019-05-21T19:56:19.566Z,101177.34
2019-05-21T19:59:04.236Z,101160.48
2019-05-21T20:01:49.551Z,101177.59
2019-05-21T20:04:34.433Z,101185.02
2019-05-21T20:07:19.447Z,101184.28
2019-05-21T20:13:07.268Z,101186.73
2019-05-21T20:18:39.692Z,101189.40
2019-05-21T20:21:24.191Z,101189.24
2019-05-21T20:24:09.258Z,101193.41
2019-05-21T20:26:56.307Z,101170.05
2019-05-21T20:29:41.016Z,101190.70
2019-05-21T20:32:27.421Z,101161.25
2019-05-21T20:35:12.268Z,101193.09
2019-05-21T20:37:58.087Z,101166.58
2019-05-21T20:40:43.962Z,101178.48
2019-05-21T20:43:28.502Z,101176.17
2019-05-21T20:46:12.497Z,101182.20
2019-05-21T20:48:57.015Z,101205.84
2019-05-21T20:51:43.043Z,101175.27
2019-05-21T20:54:29.774Z,101179.12
2019-05-21T20:57:02.122Z,101208.45
2019-05-21T20:59:46.195Z,101204.90
2019-05-21T21:02:30.565Z,101180.52
2019-05-21T21:05:15.558Z,101213.78
2019-05-21T21:08:07.801Z,101206.25
2019-05-21T21:10:52.359Z,101210.33
2019-05-21T21:13:38.115Z,101208.83
2019-05-21T21:16:23.047Z,101214.97
2019-05-21T21:19:35.091Z,101215.24
2019-05-21T21:22:18.729Z,101224.58
2019-05-21T21:25:04.844Z,101207.16
2019-05-21T21:27:49.728Z,101204.30
2019-05-21T21:30:36.428Z,101208.17
2019-05-21T21:33:22.151Z,101199.31
2019-05-21T21:36:07.298Z,101199.66
2019-05-21T21:38:40.489Z,101220.28
2019-05-21T21:41:25.469Z,101197.86
2019-05-21T21:44:09.968Z,101223.30
2019-05-21T21:46:53.685Z,101204.43
2019-05-21T21:49:39.385Z,101202.29
2019-05-21T21:52:23.938Z,101197.36
2019-05-21T21:55:08.221Z,101200.69
2019-05-21T21:57:52.568Z,101222.83
2019-05-21T22:01:01.224Z,101229.22
2019-05-21T22:03:53.971Z,101211.55
2019-05-21T22:06:39.301Z,101217.56
2019-05-21T22:09:29.800Z,101243.83
2019-05-21T22:12:18.701Z,101239.73
2019-05-21T22:15:02.697Z,101219.87
2019-05-21T22:20:33.311Z,101224.28
2019-05-21T22:23:17.784Z,101235.42
2019-05-21T22:25:50.260Z,101237.08
2019-05-21T22:28:34.466Z,101233.83
2019-05-21T22:31:19.621Z,101219.80
2019-05-21T22:34:03.274Z,101213.64
2019-05-21T22:36:47.293Z,101239.39
2019-05-21T22:39:32.405Z,101202.09
2019-05-21T22:42:17.021Z,101204.95
2019-05-21T22:45:07.771Z,101218.20
2019-05-21T22:47:47.372Z,101214.52
2019-05-21T22:50:32.522Z,101217.47
2019-05-21T22:53:16.294Z,101215.80
2019-05-21T22:56:00.267Z,101197.33
2019-05-21T22:58:44.705Z,101198.37
2019-05-21T23:01:29.977Z,101208.39
2019-05-21T23:04:02.661Z,101227.86
2019-05-21T23:06:46.361Z,101201.38
2019-05-21T23:09:31.864Z,101201.31
2019-05-21T23:12:15.987Z,101232.00
2019-05-21T23:15:00.221Z,101217.00
2019-05-21T23:17:45.623Z,101241.39
2019-05-21T23:20:48.581Z,101232.09
2019-05-21T23:23:35.937Z,101234.80
2019-05-21T23:26:20.420Z,101229.00
2019-05-21T23:29:04.330Z,101229.38
2019-05-21T23:31:48.881Z,101229.38
2019-05-21T23:34:33.332Z,101250.19
2019-05-21T23:37:21.097Z,101228.27
2019-05-21T23:40:06.795Z,101226.05
2019-05-21T23:42:50.472Z,101251.02
2019-05-21T23:45:34.464Z,101253.27
2019-05-21T23:48:18.621Z,101223.03
2019-05-21T23:51:02.654Z,101223.26
2019-05-21T23:53:48.145Z,101227.84
2019-05-21T23:56:32.607Z,101226.42
2019-05-21T23:59:17.370Z,101227.98
